Impacts METAR Board
IDs:

KCVB - Castroville Muni, TX, US

Updated at: 1300 UTC 14 Dec 2019
Potential Impact None Slight Moderate High
Time 14/01Z 14/02Z 14/03Z 14/04Z 14/05Z 14/06Z 14/07Z 14/08Z 14/09Z 14/10Z 14/11Z 14/12Z 14/13Z
Temp63 62 60 53 51 50 49 49 48 44 43 43 43
Dewpt35 35 35 36 35 37 37 37 37 37 35 35 35
Altim29.86 29.87 29.88 29.89 29.90 29.91 29.89 29.89 29.89 29.88 29.88 29.87 29.88
VIS10 10 10 10 10 10 10 10 10 10 10 10 10
CIG-- -- -- -- -- -- -- -- -- -- -- -- --
CoverCLRCLRCLRCLRCLRCLRCLRCLRCLRCLRCLRCLRCLR
FltCatVFRVFRVFRVFRVFRVFRVFRVFRVFRVFRVFRVFRVFR
WX--------------------------
WDir260350340250330290310310320300340320310
WSpd4 5 4 5 4 7 8 9 5 5 6 6 7
WGst-- -- -- -- -- -- -- -- -- -- -- -- --
Raw hourly METARs
KCVB 140055Z AUTO 26004KT 10SM CLR 17/02 A2986 RMK AO2 T01730018
KCVB 140155Z AUTO 35005KT 10SM CLR 17/02 A2987 RMK AO2 T01680016
KCVB 140255Z AUTO 34004KT 10SM CLR 15/01 A2988 RMK AO2 T01530014
KCVB 140355Z AUTO 25005KT 10SM CLR 12/02 A2989 RMK AO2 T01190020
KCVB 140455Z AUTO 33004KT 10SM CLR 11/02 A2990 RMK AO2 T01060017
KCVB 140555Z AUTO 29007KT 10SM CLR 10/03 A2991 RMK AO2 T01000030 10220 20100 402710029
KCVB 140655Z AUTO 31008KT 10SM CLR 10/03 A2989 RMK AO2 T00950026
KCVB 140755Z AUTO 31009KT 10SM CLR 09/03 A2989 RMK AO2 T00930029
KCVB 140855Z AUTO 32005KT 10SM CLR 09/03 A2989 RMK AO2 T00880025
KCVB 140955Z AUTO 30005KT 10SM CLR 07/03 A2988 RMK AO2 T00690026
KCVB 141055Z AUTO 34006KT 10SM CLR 06/02 A2988 RMK AO2 T00610015
KCVB 141155Z AUTO 32006KT 10SM CLR 06/02 A2987 RMK AO2 T00610019 10101 20060
KCVB 141255Z AUTO 31007KT 10SM CLR 06/02 A2988 RMK AO2 T00620019



Page loaded:  13:46 UTC  |   05:46 AM Pacific  |   06:46 AM Mountain  |   07:46 AM Central  |   08:46 AM Eastern

 

ADVISORIES

FORECASTS

FORECASTS

OBSERVATIONS

USER TOOLS

ABOUT US